createdAt,value
2022-08-17T00:02:26.120Z,71.41
2022-08-17T00:04:54.588Z,71.31
2022-08-17T00:07:21.289Z,71.70
2022-08-17T00:09:48.244Z,72.31
2022-08-17T00:12:51.381Z,73.01
2022-08-17T00:15:02.186Z,72.83
2022-08-17T00:17:29.115Z,72.70
2022-08-17T00:19:55.835Z,71.79
2022-08-17T00:22:33.777Z,73.01
2022-08-17T00:25:08.344Z,72.48
2022-08-17T00:27:35.755Z,72.74
2022-08-17T00:30:04.159Z,72.05
2022-08-17T00:33:12.651Z,72.54
2022-08-17T00:35:27.880Z,71.43
2022-08-17T00:37:55.433Z,71.43
2022-08-17T00:40:22.618Z,71.54
2022-08-17T00:42:52.057Z,71.89
2022-08-17T00:45:20.420Z,73.15
2022-08-17T00:47:48.468Z,73.10
2022-08-17T00:50:17.933Z,72.46
2022-08-17T00:52:54.901Z,72.14
2022-08-17T00:55:23.990Z,70.61
2022-08-17T00:57:56.191Z,70.31
2022-08-17T01:00:39.493Z,70.04
2022-08-17T01:03:11.936Z,70.31
2022-08-17T01:05:42.397Z,69.81
2022-08-17T01:08:13.078Z,70.07
2022-08-17T01:10:58.444Z,69.82
2022-08-17T01:13:41.283Z,68.93
2022-08-17T01:16:15.967Z,71.31
2022-08-17T01:18:44.663Z,70.80
2022-08-17T01:21:20.246Z,70.93
2022-08-17T01:23:46.973Z,69.91
2022-08-17T01:26:13.725Z,70.51
2022-08-17T01:28:53.712Z,69.99
2022-08-17T01:31:23.490Z,71.68
2022-08-17T01:33:50.171Z,73.44
2022-08-17T01:36:16.815Z,76.18
2022-08-17T01:38:43.572Z,77.45
2022-08-17T01:41:14.412Z,77.28
2022-08-17T01:43:49.604Z,81.61
2022-08-17T01:46:29.171Z,82.71
2022-08-17T01:48:57.747Z,83.69
2022-08-17T01:51:29.327Z,79.99
2022-08-17T01:53:58.247Z,80.24
2022-08-17T01:56:26.926Z,79.54
2022-08-17T01:58:53.948Z,78.67
2022-08-17T02:01:26.617Z,78.62
2022-08-17T02:03:59.452Z,78.76
2022-08-17T02:06:30.265Z,79.96
2022-08-17T02:09:03.168Z,81.54
2022-08-17T02:11:33.525Z,82.53
2022-08-17T02:14:03.723Z,88.03
2022-08-17T02:16:37.125Z,92.26
2022-08-17T02:19:07.968Z,94.22
2022-08-17T02:21:36.383Z,95.07
2022-08-17T02:24:04.879Z,93.63
2022-08-17T02:26:31.694Z,92.35
2022-08-17T02:28:58.341Z,88.55
2022-08-17T02:31:25.022Z,87.14
2022-08-17T02:34:03.363Z,86.15
2022-08-17T02:36:31.250Z,84.95
2022-08-17T02:38:58.699Z,84.29
2022-08-17T02:41:25.608Z,83.31
2022-08-17T02:43:53.568Z,82.96
2022-08-17T02:46:20.220Z,82.09
2022-08-17T02:48:47.312Z,82.71
2022-08-17T02:51:14.290Z,81.36
2022-08-17T02:53:41.089Z,82.58
2022-08-17T02:56:07.793Z,82.91
2022-08-17T02:58:35.972Z,81.52
2022-08-17T03:01:08.808Z,81.32
2022-08-17T03:03:36.974Z,80.88
2022-08-17T03:06:04.712Z,81.91
2022-08-17T03:08:31.756Z,82.81
2022-08-17T03:10:58.482Z,84.64
2022-08-17T03:13:25.576Z,86.54
2022-08-17T03:15:52.206Z,85.66
2022-08-17T03:18:25.588Z,85.98
2022-08-17T03:20:58.753Z,85.49
2022-08-17T03:23:26.442Z,87.45
2022-08-17T03:25:55.213Z,88.42
2022-08-17T03:28:23.295Z,87.41
2022-08-17T03:30:51.252Z,85.87
2022-08-17T03:33:18.905Z,87.51
2022-08-17T03:35:45.874Z,86.99
2022-08-17T03:38:15.369Z,84.61
2022-08-17T03:40:58.021Z,83.91
2022-08-17T03:43:28.214Z,83.29
2022-08-17T03:46:34.581Z,83.40
2022-08-17T03:49:18.456Z,85.88
2022-08-17T03:52:03.794Z,85.63
2022-08-17T03:54:49.046Z,85.20
2022-08-17T03:57:16.367Z,84.31
2022-08-17T03:59:43.429Z,83.99
2022-08-17T04:02:21.360Z,83.42
2022-08-17T04:04:50.879Z,82.60
2022-08-17T04:07:23.520Z,80.75
2022-08-17T04:09:50.207Z,80.36
2022-08-17T04:12:19.065Z,79.83
2022-08-17T04:14:53.223Z,81.25
2022-08-17T04:17:27.830Z,82.38
2022-08-17T04:19:55.686Z,82.91
2022-08-17T04:22:30.869Z,81.56
2022-08-17T04:25:15.724Z,80.30
2022-08-17T04:27:42.375Z,84.41
2022-08-17T04:30:09.823Z,91.48
2022-08-17T04:33:05.527Z,94.48
2022-08-17T04:35:37.718Z,92.84
2022-08-17T04:38:05.131Z,93.45
2022-08-17T04:40:50.747Z,91.63
2022-08-17T04:43:20.930Z,91.50
2022-08-17T04:45:55.994Z,88.15
2022-08-17T04:48:34.807Z,87.53
2022-08-17T04:51:10.580Z,88.19
2022-08-17T04:53:39.200Z,87.78
2022-08-17T04:56:06.247Z,85.79
2022-08-17T04:58:33.253Z,85.72
2022-08-17T05:01:00.068Z,84.54
2022-08-17T05:03:27.062Z,87.95
2022-08-17T05:05:54.095Z,89.14
2022-08-17T05:08:20.951Z,89.34
2022-08-17T05:10:48.750Z,91.31
2022-08-17T05:13:27.223Z,90.87
2022-08-17T05:15:57.305Z,90.14
2022-08-17T05:18:24.965Z,90.00
2022-08-17T05:20:52.379Z,90.56
2022-08-17T05:23:21.632Z,90.21
2022-08-17T05:25:51.553Z,89.11
2022-08-17T05:28:24.105Z,87.86
2022-08-17T05:30:57.146Z,84.31
2022-08-17T05:33:27.452Z,82.52
2022-08-17T05:35:58.007Z,82.75
2022-08-17T05:38:27.423Z,82.27
2022-08-17T05:40:55.212Z,84.85
2022-08-17T05:43:28.627Z,81.61
2022-08-17T05:46:03.372Z,82.23
2022-08-17T05:48:43.514Z,80.67
2022-08-17T05:51:47.000Z,69.66
2022-08-17T05:54:19.474Z,64.95
2022-08-17T05:57:16.746Z,63.16
2022-08-17T05:59:58.943Z,61.28
2022-08-17T06:02:38.004Z,60.89
2022-08-17T06:05:29.178Z,59.61
2022-08-17T06:08:10.912Z,57.28
2022-08-17T06:10:43.909Z,55.64
2022-08-17T06:13:31.694Z,54.14
2022-08-17T06:16:04.587Z,54.00
2022-08-17T06:19:00.047Z,53.56
2022-08-17T06:21:32.014Z,52.94
2022-08-17T06:24:23.903Z,52.25
2022-08-17T06:26:52.947Z,50.44
2022-08-17T06:29:42.142Z,54.54
2022-08-17T06:32:12.752Z,55.16
2022-08-17T06:34:41.787Z,51.32
2022-08-17T06:37:29.935Z,49.80
2022-08-17T06:40:47.358Z,48.52
2022-08-17T06:43:26.196Z,48.68
2022-08-17T06:45:58.954Z,48.27
2022-08-17T06:48:40.748Z,48.81
2022-08-17T06:51:14.297Z,47.25
2022-08-17T06:53:59.644Z,46.85
2022-08-17T06:56:55.257Z,46.57
2022-08-17T06:59:53.247Z,46.51
2022-08-17T07:02:51.288Z,46.41
2022-08-17T07:05:24.252Z,46.41
2022-08-17T07:08:02.132Z,45.98
2022-08-17T07:10:36.411Z,46.33
2022-08-17T07:13:18.184Z,44.83
2022-08-17T07:15:47.214Z,44.43
2022-08-17T07:18:13.866Z,44.72
2022-08-17T07:20:46.697Z,44.51
2022-08-17T07:23:21.113Z,43.77
2022-08-17T07:25:49.218Z,43.73
2022-08-17T07:28:24.506Z,42.63
2022-08-17T07:30:54.203Z,42.84
2022-08-17T07:33:32.891Z,43.23
2022-08-17T07:36:00.352Z,42.84
2022-08-17T07:38:30.165Z,42.08
2022-08-17T07:41:03.363Z,42.33
2022-08-17T07:43:39.243Z,42.22
2022-08-17T07:46:30.175Z,41.55
2022-08-17T07:49:23.133Z,39.92
2022-08-17T07:51:50.470Z,40.90
2022-08-17T07:54:23.187Z,40.45
2022-08-17T07:56:53.181Z,38.58
2022-08-17T07:59:23.091Z,39.00
2022-08-17T08:01:57.490Z,38.67
2022-08-17T08:04:59.845Z,36.88
2022-08-17T08:07:34.743Z,37.62
2022-08-17T08:10:08.004Z,37.66
2022-08-17T08:12:43.467Z,37.73
2022-08-17T08:15:17.386Z,37.03
2022-08-17T08:17:53.282Z,36.73
2022-08-17T08:20:58.289Z,37.77
2022-08-17T08:23:37.307Z,35.68
2022-08-17T08:26:20.465Z,35.76
2022-08-17T08:29:18.195Z,36.19
2022-08-17T08:32:11.284Z,35.14
2022-08-17T08:35:02.204Z,35.08
2022-08-17T08:37:51.018Z,35.80
2022-08-17T08:40:45.162Z,35.22
2022-08-17T08:43:17.827Z,35.44
2022-08-17T08:46:22.992Z,35.00
2022-08-17T08:49:00.175Z,35.45
2022-08-17T08:51:55.624Z,35.50
2022-08-17T08:54:34.595Z,35.51
2022-08-17T08:59:59.701Z,33.40
2022-08-17T09:02:29.093Z,33.39
2022-08-17T09:05:35.631Z,33.30
2022-08-17T09:08:20.288Z,33.57
2022-08-17T09:10:59.827Z,34.09
2022-08-17T09:13:54.287Z,33.78
2022-08-17T09:17:03.222Z,33.31
2022-08-17T09:19:44.839Z,33.80
2022-08-17T09:22:31.507Z,34.42
2022-08-17T09:25:29.007Z,33.34
2022-08-17T09:28:06.477Z,33.37
2022-08-17T09:30:55.317Z,34.50
2022-08-17T09:33:28.472Z,34.48
2022-08-17T09:36:04.348Z,34.89
2022-08-17T09:38:49.020Z,34.08
2022-08-17T09:41:49.132Z,33.99
2022-08-17T09:44:42.741Z,33.31
2022-08-17T09:47:26.152Z,32.57
2022-08-17T09:50:00.400Z,32.37
2022-08-17T09:52:31.246Z,32.79
2022-08-17T09:55:01.023Z,32.47
2022-08-17T09:57:58.098Z,32.58
2022-08-17T10:00:30.806Z,32.77
2022-08-17T10:03:19.854Z,32.81
2022-08-17T10:06:22.359Z,32.30
2022-08-17T10:09:08.452Z,31.51
2022-08-17T10:12:11.180Z,31.01
2022-08-17T10:15:14.898Z,30.82
2022-08-17T10:18:11.550Z,30.83
2022-08-17T10:20:43.972Z,30.82
2022-08-17T10:23:46.990Z,30.64
2022-08-17T10:26:16.890Z,31.10
2022-08-17T10:28:53.324Z,30.19
2022-08-17T10:31:35.767Z,30.27
2022-08-17T10:34:36.159Z,30.10
2022-08-17T10:37:20.141Z,29.76
2022-08-17T10:39:52.634Z,30.63
2022-08-17T10:42:36.733Z,29.75
2022-08-17T10:45:15.482Z,30.04
2022-08-17T10:48:13.103Z,30.29
2022-08-17T10:51:08.813Z,30.54
2022-08-17T10:53:35.426Z,29.80
2022-08-17T10:56:14.295Z,29.12
2022-08-17T10:58:55.141Z,29.08
2022-08-17T11:01:34.167Z,28.69
2022-08-17T11:04:26.923Z,29.02
2022-08-17T11:07:16.033Z,30.02
2022-08-17T11:10:08.309Z,30.19
2022-08-17T11:13:02.010Z,29.81
2022-08-17T11:16:09.456Z,29.92
2022-08-17T11:19:08.565Z,29.32
2022-08-17T11:21:54.385Z,29.07
2022-08-17T11:24:47.881Z,28.98
2022-08-17T11:27:32.991Z,29.68
2022-08-17T11:30:03.041Z,29.39
2022-08-17T11:32:47.419Z,29.20
2022-08-17T11:35:20.635Z,29.12
2022-08-17T11:38:08.624Z,27.84
2022-08-17T11:41:06.125Z,27.97
2022-08-17T11:43:51.291Z,29.07
2022-08-17T11:46:53.941Z,29.52
2022-08-17T11:49:50.750Z,28.39
2022-08-17T11:52:38.569Z,28.91
2022-08-17T11:55:34.131Z,29.14
2022-08-17T11:58:18.807Z,29.13
2022-08-17T12:00:45.450Z,29.53
2022-08-17T12:03:32.956Z,28.99
2022-08-17T12:06:23.372Z,29.14
2022-08-17T12:09:06.970Z,28.26
2022-08-17T12:11:56.359Z,28.32
2022-08-17T12:14:51.651Z,29.14
2022-08-17T12:17:39.706Z,28.46
2022-08-17T12:20:14.448Z,28.13
2022-08-17T12:23:07.197Z,27.99
2022-08-17T12:25:46.681Z,27.07
2022-08-17T12:28:33.259Z,27.29
2022-08-17T12:31:03.758Z,27.79
2022-08-17T12:33:30.836Z,28.61
2022-08-17T12:36:03.993Z,28.32
2022-08-17T12:38:34.711Z,27.86
2022-08-17T12:41:23.859Z,27.30
2022-08-17T12:44:25.816Z,27.10
2022-08-17T12:46:55.538Z,28.03
2022-08-17T12:49:30.733Z,27.40
2022-08-17T12:52:04.711Z,27.48
2022-08-17T12:54:51.004Z,27.71
2022-08-17T12:57:19.961Z,27.62
2022-08-17T12:59:51.409Z,27.82
2022-08-17T13:02:32.590Z,27.20
2022-08-17T13:05:01.243Z,27.47
2022-08-17T13:07:35.419Z,27.26
2022-08-17T13:10:03.501Z,27.98
2022-08-17T13:12:33.772Z,26.84
2022-08-17T13:15:00.940Z,27.16
2022-08-17T13:17:34.778Z,26.97
2022-08-17T13:20:03.536Z,27.33
2022-08-17T13:22:32.394Z,27.71
2022-08-17T13:25:07.063Z,27.18
2022-08-17T13:27:34.043Z,27.23
2022-08-17T13:30:07.444Z,26.83
2022-08-17T13:32:43.595Z,26.28
2022-08-17T13:35:29.579Z,26.44
2022-08-17T13:38:04.433Z,26.64
2022-08-17T13:40:37.719Z,26.41
2022-08-17T13:43:05.065Z,27.04
2022-08-17T13:45:38.862Z,26.39
2022-08-17T13:48:12.391Z,26.05
2022-08-17T13:51:00.745Z,26.70
2022-08-17T13:53:30.032Z,26.83
2022-08-17T13:56:37.558Z,26.91
2022-08-17T13:59:05.989Z,27.12
2022-08-17T14:01:42.104Z,27.14
2022-08-17T14:04:14.691Z,27.49
2022-08-17T14:07:03.955Z,27.07
2022-08-17T14:09:58.256Z,26.58
2022-08-17T14:12:29.434Z,27.10
2022-08-17T14:14:56.552Z,27.04
2022-08-17T14:17:24.156Z,26.35
2022-08-17T14:19:51.586Z,26.50
2022-08-17T14:22:33.685Z,25.88
2022-08-17T14:25:03.879Z,26.13
2022-08-17T14:27:34.019Z,26.07
2022-08-17T14:30:10.820Z,25.48
2022-08-17T14:32:41.307Z,25.96
2022-08-17T14:35:10.007Z,26.63
2022-08-17T14:37:37.041Z,25.59
2022-08-17T14:40:08.131Z,26.14
2022-08-17T14:42:36.938Z,26.03
2022-08-17T14:45:06.155Z,26.03
2022-08-17T14:47:52.880Z,25.76
2022-08-17T14:50:22.685Z,25.89
2022-08-17T14:52:50.611Z,25.88
2022-08-17T14:55:18.353Z,25.50
2022-08-17T14:57:45.325Z,25.58
2022-08-17T15:00:12.931Z,25.42
2022-08-17T15:02:51.711Z,25.38
2022-08-17T15:05:18.495Z,25.61
2022-08-17T15:07:45.133Z,25.13
2022-08-17T15:10:16.380Z,25.98
2022-08-17T15:12:43.756Z,26.08
2022-08-17T15:15:13.082Z,26.48
2022-08-17T15:17:54.596Z,27.37
2022-08-17T15:20:24.717Z,26.14
2022-08-17T15:22:55.907Z,25.96
2022-08-17T15:25:24.961Z,26.16
2022-08-17T15:27:52.025Z,25.83
2022-08-17T15:30:19.133Z,26.13
2022-08-17T15:32:51.470Z,25.83
2022-08-17T15:35:28.097Z,25.71
2022-08-17T15:38:11.604Z,25.58
2022-08-17T15:40:44.502Z,25.53
2022-08-17T15:43:20.058Z,25.80
2022-08-17T15:45:59.749Z,26.00
2022-08-17T15:48:41.205Z,26.51
2022-08-17T15:51:08.944Z,26.22
2022-08-17T15:53:35.941Z,26.70
2022-08-17T15:56:03.293Z,26.38
2022-08-17T15:58:33.314Z,27.21
2022-08-17T16:01:18.815Z,27.57
2022-08-17T16:04:04.593Z,27.88
2022-08-17T16:06:34.503Z,28.25
2022-08-17T16:09:01.357Z,27.92
2022-08-17T16:11:28.112Z,28.34
2022-08-17T16:13:56.141Z,28.62
2022-08-17T16:16:23.762Z,28.88
2022-08-17T16:18:55.673Z,28.85
2022-08-17T16:21:26.986Z,29.16
2022-08-17T16:23:57.981Z,29.23
2022-08-17T16:26:24.776Z,29.60
2022-08-17T16:28:52.170Z,29.92
2022-08-17T16:31:18.879Z,30.21
2022-08-17T16:34:16.307Z,30.30
2022-08-17T16:36:32.400Z,30.56
2022-08-17T16:39:00.523Z,30.65
2022-08-17T16:41:45.724Z,31.13
2022-08-17T16:44:17.497Z,30.52
2022-08-17T16:46:46.222Z,31.74
2022-08-17T16:49:35.112Z,31.77
2022-08-17T16:52:03.812Z,32.32
2022-08-17T16:54:30.650Z,32.34
2022-08-17T16:56:57.372Z,33.06
2022-08-17T16:59:31.213Z,33.04
2022-08-17T17:02:10.904Z,33.68
2022-08-17T17:04:53.250Z,33.95
2022-08-17T17:07:53.792Z,33.56
2022-08-17T17:10:24.552Z,32.75
2022-08-17T17:13:01.859Z,33.14
2022-08-17T17:15:54.280Z,32.95
2022-08-17T17:18:30.189Z,33.09
2022-08-17T17:20:58.046Z,33.20
2022-08-17T17:23:30.488Z,33.67
2022-08-17T17:26:15.866Z,32.41
2022-08-17T17:28:58.365Z,32.51
2022-08-17T17:31:39.469Z,32.87
2022-08-17T17:34:10.138Z,32.72
2022-08-17T17:36:42.472Z,33.03
2022-08-17T17:39:17.760Z,33.03
2022-08-17T17:41:59.127Z,32.99
2022-08-17T17:44:32.182Z,33.25
2022-08-17T17:47:01.631Z,33.25
2022-08-17T17:49:35.121Z,33.17
2022-08-17T17:52:07.821Z,33.25
2022-08-17T17:54:43.987Z,32.92
2022-08-17T17:57:35.316Z,32.91
2022-08-17T18:00:14.779Z,32.62
2022-08-17T18:03:00.156Z,33.00
2022-08-17T18:06:01.348Z,33.08
2022-08-17T18:08:53.240Z,33.16
2022-08-17T18:11:42.059Z,33.16
2022-08-17T18:14:39.723Z,33.22
2022-08-17T18:17:06.849Z,33.15
2022-08-17T18:19:33.624Z,33.56
2022-08-17T18:22:14.507Z,33.40
2022-08-17T18:24:44.214Z,33.54
2022-08-17T18:27:33.194Z,33.37
2022-08-17T18:30:15.166Z,33.54
2022-08-17T18:32:44.446Z,33.47
2022-08-17T18:35:11.041Z,34.56
2022-08-17T18:37:45.072Z,36.20
2022-08-17T18:40:18.374Z,37.28
2022-08-17T18:43:00.274Z,38.39
2022-08-17T18:45:35.883Z,38.50
2022-08-17T18:48:03.210Z,40.05
2022-08-17T18:50:41.401Z,40.36
2022-08-17T18:53:19.648Z,41.00
2022-08-17T18:55:46.506Z,40.77
2022-08-17T18:58:24.146Z,40.72
2022-08-17T19:00:51.408Z,40.88
2022-08-17T19:03:18.071Z,40.04
2022-08-17T19:05:46.327Z,39.36
2022-08-17T19:08:28.375Z,38.78
2022-08-17T19:11:23.666Z,38.90
2022-08-17T19:14:06.509Z,38.47
2022-08-17T19:16:42.155Z,38.78
2022-08-17T19:19:51.052Z,38.77
2022-08-17T19:22:28.633Z,38.81
2022-08-17T19:25:10.803Z,38.86
2022-08-17T19:27:57.649Z,38.58
2022-08-17T19:30:25.377Z,38.33
2022-08-17T19:32:53.062Z,38.53
2022-08-17T19:35:22.794Z,39.14
2022-08-17T19:38:04.877Z,38.61
2022-08-17T19:41:06.990Z,39.11
2022-08-17T19:43:42.702Z,39.21
2022-08-17T19:46:35.657Z,39.33
2022-08-17T19:49:22.333Z,38.95
2022-08-17T19:52:30.319Z,39.08
2022-08-17T19:55:04.779Z,39.13
2022-08-17T19:58:00.671Z,39.41
2022-08-17T20:00:31.031Z,39.85
2022-08-17T20:03:22.103Z,40.32
2022-08-17T20:06:14.074Z,40.39
2022-08-17T20:08:58.408Z,40.77
2022-08-17T20:11:34.276Z,41.31
2022-08-17T20:14:12.531Z,41.60
2022-08-17T20:16:39.383Z,41.84
2022-08-17T20:19:31.703Z,41.78
2022-08-17T20:22:10.479Z,42.24
2022-08-17T20:24:54.187Z,42.74
2022-08-17T20:27:26.375Z,42.26
2022-08-17T20:30:10.409Z,42.36
2022-08-17T20:32:52.817Z,42.37
2022-08-17T20:35:26.431Z,42.54
2022-08-17T20:37:58.333Z,42.66
2022-08-17T20:40:31.786Z,42.56
2022-08-17T20:42:59.378Z,42.85
2022-08-17T20:45:28.606Z,42.56
2022-08-17T20:48:26.070Z,42.31
2022-08-17T20:50:57.469Z,41.29
2022-08-17T20:53:53.666Z,41.24
2022-08-17T20:56:50.025Z,41.93
2022-08-17T20:59:25.979Z,42.40
2022-08-17T21:02:18.074Z,42.74
2022-08-17T21:05:00.190Z,42.13
2022-08-17T21:07:30.003Z,42.81
2022-08-17T21:10:16.223Z,43.61
2022-08-17T21:12:56.693Z,45.01
2022-08-17T21:15:39.908Z,46.34
2022-08-17T21:18:25.953Z,46.35
2022-08-17T21:21:04.385Z,45.92
2022-08-17T21:23:36.647Z,46.60
2022-08-17T21:26:21.131Z,47.72
2022-08-17T21:29:29.524Z,47.22
2022-08-17T21:32:03.764Z,48.61
2022-08-17T21:34:43.816Z,49.22
2022-08-17T21:37:19.842Z,49.32
2022-08-17T21:39:53.273Z,49.36
2022-08-17T21:42:29.096Z,51.12
2022-08-17T21:45:00.596Z,51.88
2022-08-17T21:47:30.345Z,52.43
2022-08-17T21:50:20.018Z,53.43
2022-08-17T21:52:49.997Z,54.12
2022-08-17T21:55:28.125Z,54.75
2022-08-17T21:58:13.769Z,55.18
2022-08-17T22:00:41.242Z,55.74
2022-08-17T22:03:23.585Z,57.09
2022-08-17T22:05:51.482Z,56.19
2022-08-17T22:08:24.535Z,56.45
2022-08-17T22:10:59.820Z,57.12
2022-08-17T22:13:29.473Z,57.53
2022-08-17T22:16:15.532Z,59.51
2022-08-17T22:18:53.676Z,61.77
2022-08-17T22:21:22.475Z,63.84
2022-08-17T22:24:15.379Z,64.47
2022-08-17T22:27:00.318Z,62.88
2022-08-17T22:29:57.571Z,62.06
2022-08-17T22:32:44.573Z,61.51
2022-08-17T22:35:32.810Z,61.73
2022-08-17T22:38:18.332Z,62.31
2022-08-17T22:40:52.097Z,62.29
2022-08-17T22:43:26.373Z,60.83
2022-08-17T22:45:57.520Z,62.14
2022-08-17T22:48:27.959Z,63.17
2022-08-17T22:51:17.371Z,62.30
2022-08-17T22:54:12.672Z,63.38
2022-08-17T22:57:07.479Z,62.56
2022-08-17T22:59:45.978Z,63.31
2022-08-17T23:02:20.756Z,62.89
2022-08-17T23:04:55.585Z,63.58
2022-08-17T23:07:22.444Z,63.58
2022-08-17T23:09:51.134Z,64.23
2022-08-17T23:12:26.708Z,65.41
2022-08-17T23:15:00.572Z,63.53
2022-08-17T23:17:37.262Z,64.47
2022-08-17T23:20:08.298Z,65.27
2022-08-17T23:22:37.928Z,64.87
2022-08-17T23:25:26.815Z,66.00
2022-08-17T23:27:54.477Z,66.02
2022-08-17T23:30:24.901Z,67.02
2022-08-17T23:32:53.824Z,67.67
2022-08-17T23:35:39.033Z,68.96
2022-08-17T23:38:09.837Z,69.33
2022-08-17T23:40:37.801Z,69.35
2022-08-17T23:43:24.506Z,68.82
2022-08-17T23:45:54.713Z,67.61
2022-08-17T23:48:28.545Z,67.95
2022-08-17T23:51:09.089Z,71.79
2022-08-17T23:53:37.374Z,70.53
2022-08-17T23:56:10.482Z,71.18
2022-08-17T23:58:42.344Z,73.86
